Pagina principală
METAR-TAF:

METAR-TAF

Aeroporturi :

A.L. Mangham Jr. Regional Airport

Nacogdoches, Texas, Statele Unite ale Americii

Latitudine: 31-35N, longitudine: 094-43W, elevație: 108 m

Observații meteo curente

Raportul a fost făcut în urmă cu 1 oră și 6 de minute, la 20:56 UTC
Vânt 6 kt de la Sud/Sud-vest
Temperatură 34°C
Umiditate 50%
Presiune 1016 hPa
Vizibilitate: 16.1 km
Nori fragmentați la o înălțime de 5000 picior

METAR: KOCH 222056Z AUTO 20006KT 10SM BKN050 34/22 A3000 RMK AO2 SLP159 T03440217 58021

Ora: 17:02 (22:02 UTC)


TAF: lipsă

Observații și prognoze meteo pentru peste 4.000 de aeroporturi (rapoarte METAR și TAF).

Stațiile disponibile sunt reprezentate pe hartă prin puncte galbene și roșii.

Țineți indicatorul mouse-ului pe punctul dorit pentru a vedea denumirea stației.

Apoi, faceți clic pentru a vedea observațiile și prognozele meteorologice.

Pentru a schimba harta: Pentru mărire, faceți clic pe butoanele verzi cu cruce neagră; pentru micșorare, pe butonul verde cu o liniuță; pentru hărți învecinate, pe săgețile verzi.


METAR-TAF: